createdAt,value
2023-04-18T00:02:05.236Z,8.64
2023-04-18T00:04:34.213Z,8.65
2023-04-18T00:07:02.789Z,8.63
2023-04-18T00:09:31.259Z,8.62
2023-04-18T00:11:59.680Z,8.61
2023-04-18T00:14:30.270Z,8.60
2023-04-18T00:16:58.864Z,8.61
2023-04-18T00:19:27.882Z,8.62
2023-04-18T00:21:58.184Z,8.62
2023-04-18T00:24:26.772Z,8.61
2023-04-18T00:26:55.137Z,8.62
2023-04-18T00:29:23.528Z,8.62
2023-04-18T00:31:54.442Z,8.61
2023-04-18T00:34:23.131Z,8.59
2023-04-18T00:36:51.562Z,8.58
2023-04-18T00:39:20.142Z,8.56
2023-04-18T00:41:48.393Z,8.55
2023-04-18T00:44:16.946Z,8.55
2023-04-18T00:46:45.505Z,8.56
2023-04-18T00:49:14.098Z,8.56
2023-04-18T00:51:43.285Z,8.55
2023-04-18T00:54:13.688Z,8.54
2023-04-18T00:56:42.733Z,8.53
2023-04-18T00:59:12.102Z,8.53
2023-04-18T01:01:41.955Z,8.53
2023-04-18T01:04:10.356Z,8.53
2023-04-18T01:06:39.329Z,8.52
2023-04-18T01:09:08.048Z,8.51
2023-04-18T01:11:36.514Z,8.50
2023-04-18T01:14:07.189Z,8.51
2023-04-18T01:16:37.292Z,8.49
2023-04-18T01:19:06.503Z,8.47
2023-04-18T01:21:37.405Z,8.44
2023-04-18T01:24:14.175Z,8.44
2023-04-18T01:26:45.125Z,8.42
2023-04-18T01:29:13.987Z,8.42
2023-04-18T01:31:42.717Z,8.41
2023-04-18T01:34:11.787Z,8.40
2023-04-18T01:36:42.626Z,8.38
2023-04-18T01:39:13.587Z,8.36
2023-04-18T01:41:42.545Z,8.35
2023-04-18T01:44:11.525Z,8.33
2023-04-18T01:46:41.182Z,8.33
2023-04-18T01:49:10.708Z,8.32
2023-04-18T01:51:39.176Z,8.32
2023-04-18T01:54:07.823Z,8.30
2023-04-18T01:56:36.164Z,8.31
2023-04-18T01:59:04.556Z,8.30
2023-04-18T02:01:33.077Z,8.29
2023-04-18T02:04:01.650Z,8.27
2023-04-18T02:06:29.951Z,8.23
2023-04-18T02:08:58.216Z,8.22
2023-04-18T02:11:27.027Z,8.22
2023-04-18T02:13:55.512Z,8.19
2023-04-18T02:16:23.973Z,8.17
2023-04-18T02:18:52.903Z,8.16
2023-04-18T02:21:22.184Z,8.15
2023-04-18T02:23:51.139Z,8.15
2023-04-18T02:26:24.020Z,8.15
2023-04-18T02:28:52.554Z,8.14
2023-04-18T02:31:21.058Z,8.13
2023-04-18T02:33:49.509Z,8.12
2023-04-18T02:36:17.994Z,8.12
2023-04-18T02:38:46.448Z,8.13
2023-04-18T02:41:17.759Z,8.14
2023-04-18T02:43:55.696Z,8.17
2023-04-18T02:46:24.383Z,8.17
2023-04-18T02:48:53.069Z,8.17
2023-04-18T02:51:23.694Z,8.17
2023-04-18T02:53:55.408Z,8.17
2023-04-18T02:56:24.148Z,8.15
2023-04-18T02:59:11.667Z,8.14
2023-04-18T03:01:59.622Z,8.12
2023-04-18T03:04:28.310Z,8.11
2023-04-18T03:07:02.830Z,8.11
2023-04-18T03:09:34.141Z,8.10
2023-04-18T03:12:06.775Z,8.10
2023-04-18T03:14:36.478Z,8.10
2023-04-18T03:17:05.449Z,8.11
2023-04-18T03:19:39.050Z,8.11
2023-04-18T03:22:10.464Z,8.12
2023-04-18T03:24:44.208Z,8.14
2023-04-18T03:27:13.882Z,8.16
2023-04-18T03:29:43.320Z,8.18
2023-04-18T03:32:12.812Z,8.19
2023-04-18T03:34:41.325Z,8.20
2023-04-18T03:37:10.103Z,8.21
2023-04-18T03:39:43.441Z,8.23
2023-04-18T03:42:12.128Z,8.24
2023-04-18T03:44:40.870Z,8.25
2023-04-18T03:47:09.554Z,8.25
2023-04-18T03:49:40.616Z,8.26
2023-04-18T03:52:09.488Z,8.26
2023-04-18T03:54:38.180Z,8.27
2023-04-18T03:57:06.868Z,8.29
2023-04-18T03:59:37.100Z,8.30
2023-04-18T04:02:05.758Z,8.30
2023-04-18T04:04:34.663Z,8.31
2023-04-18T04:07:03.373Z,8.32
2023-04-18T04:09:31.838Z,8.33
2023-04-18T04:12:03.098Z,8.35
2023-04-18T04:14:31.772Z,8.38
2023-04-18T04:17:00.770Z,8.39
2023-04-18T04:19:30.701Z,8.43
2023-04-18T04:22:19.545Z,8.46
2023-04-18T04:24:48.229Z,8.49
2023-04-18T04:27:19.241Z,8.53
2023-04-18T04:29:49.392Z,8.55
2023-04-18T04:32:20.583Z,8.59
2023-04-18T04:34:49.745Z,8.61
2023-04-18T04:37:21.597Z,8.63
2023-04-18T04:40:01.053Z,8.65
2023-04-18T04:42:46.209Z,8.66
2023-04-18T04:45:21.124Z,8.68
2023-04-18T04:47:49.453Z,8.71
2023-04-18T04:50:19.129Z,8.73
2023-04-18T04:52:47.923Z,8.74
2023-04-18T04:55:17.731Z,8.76
2023-04-18T04:57:46.317Z,8.77
2023-04-18T05:00:41.417Z,8.81
2023-04-18T05:03:11.033Z,8.85
2023-04-18T05:05:39.614Z,8.87
2023-04-18T05:08:08.295Z,8.88
2023-04-18T05:10:37.417Z,8.90
2023-04-18T05:13:06.084Z,8.92
2023-04-18T05:15:34.975Z,8.95
2023-04-18T05:18:03.616Z,8.97
2023-04-18T05:20:32.252Z,9.01
2023-04-18T05:23:01.339Z,9.05
2023-04-18T05:25:30.142Z,9.09
2023-04-18T05:28:00.655Z,9.12
2023-04-18T05:30:29.283Z,9.17
2023-04-18T05:32:57.967Z,9.21
2023-04-18T05:35:26.624Z,9.25
2023-04-18T05:37:55.304Z,9.31
2023-04-18T05:40:24.106Z,9.35
2023-04-18T05:42:52.679Z,9.39
2023-04-18T05:45:21.267Z,9.44
2023-04-18T05:47:49.691Z,9.50
2023-04-18T05:50:18.333Z,9.53
2023-04-18T05:52:46.737Z,9.56
2023-04-18T05:55:15.132Z,9.60
2023-04-18T05:57:43.886Z,9.66
2023-04-18T06:00:13.193Z,9.72
2023-04-18T06:02:41.914Z,9.80
2023-04-18T06:05:10.941Z,9.86
2023-04-18T06:07:39.752Z,9.90
2023-04-18T06:10:11.323Z,9.93
2023-04-18T06:12:40.675Z,9.96
2023-04-18T06:15:10.187Z,9.99
2023-04-18T06:17:39.950Z,10.02
2023-04-18T06:20:10.937Z,10.07
2023-04-18T06:22:39.354Z,10.12
2023-04-18T06:25:11.114Z,10.16
2023-04-18T06:27:39.693Z,10.19
2023-04-18T06:30:09.053Z,10.21
2023-04-18T06:32:37.457Z,10.26
2023-04-18T06:35:06.778Z,10.35
2023-04-18T06:37:35.553Z,10.46
2023-04-18T06:40:04.354Z,10.54
2023-04-18T06:42:32.836Z,10.62
2023-04-18T06:45:01.539Z,10.69
2023-04-18T06:47:31.355Z,10.74
2023-04-18T06:49:59.927Z,10.83
2023-04-18T06:52:28.406Z,10.95
2023-04-18T06:54:56.854Z,11.07
2023-04-18T06:57:26.389Z,11.18
2023-04-18T06:59:54.729Z,11.31
2023-04-18T07:02:23.167Z,11.41
2023-04-18T07:04:52.069Z,11.52
2023-04-18T07:07:21.241Z,11.61
2023-04-18T07:09:50.239Z,11.69
2023-04-18T07:12:18.825Z,11.79
2023-04-18T07:14:47.606Z,11.88
2023-04-18T07:17:16.083Z,12.00
2023-04-18T07:19:44.958Z,12.16
2023-04-18T07:22:13.464Z,12.38
2023-04-18T07:24:42.559Z,12.65
2023-04-18T07:27:10.952Z,12.71
2023-04-18T07:29:39.436Z,12.76
2023-04-18T07:32:08.710Z,12.87
2023-04-18T07:34:37.766Z,12.99
2023-04-18T07:37:07.232Z,13.09
2023-04-18T07:39:36.377Z,13.24
2023-04-18T07:42:05.005Z,13.50
2023-04-18T07:44:35.946Z,13.85
2023-04-18T07:47:07.265Z,14.10
2023-04-18T07:49:36.187Z,14.22
2023-04-18T07:52:05.164Z,14.22
2023-04-18T07:54:33.672Z,14.22
2023-04-18T07:57:02.294Z,14.27
2023-04-18T07:59:32.551Z,14.40
2023-04-18T08:02:01.137Z,14.59
2023-04-18T08:04:30.630Z,14.66
2023-04-18T08:06:59.461Z,14.66
2023-04-18T08:09:27.763Z,14.63
2023-04-18T08:11:57.243Z,14.64
2023-04-18T08:14:25.723Z,14.75
2023-04-18T08:16:54.520Z,14.94
2023-04-18T08:19:24.119Z,15.16
2023-04-18T08:21:52.805Z,15.43
2023-04-18T08:24:21.291Z,15.61
2023-04-18T08:26:49.773Z,15.70
2023-04-18T08:29:18.367Z,15.77
2023-04-18T08:31:46.888Z,15.84
2023-04-18T08:34:15.533Z,15.95
2023-04-18T08:36:43.914Z,15.93
2023-04-18T08:39:12.978Z,15.92
2023-04-18T08:41:43.466Z,15.93
2023-04-18T08:44:12.909Z,15.93
2023-04-18T08:46:42.035Z,16.02
2023-04-18T08:49:12.012Z,16.05
2023-04-18T08:51:42.073Z,16.17
2023-04-18T08:54:12.546Z,16.33
2023-04-18T08:56:41.394Z,16.43
2023-04-18T08:59:12.006Z,16.46
2023-04-18T09:01:50.037Z,16.48
2023-04-18T09:04:53.252Z,16.51
2023-04-18T09:08:21.818Z,16.71
2023-04-18T09:11:42.729Z,17.20
2023-04-18T09:18:03.734Z,17.91
2023-04-18T09:20:42.542Z,18.25
2023-04-18T09:23:16.834Z,18.57
2023-04-18T09:25:48.302Z,18.90
2023-04-18T09:28:28.918Z,19.08
2023-04-18T09:31:04.681Z,19.17
2023-04-18T09:33:33.319Z,19.19
2023-04-18T09:36:21.745Z,19.18
2023-04-18T09:38:54.611Z,19.28
2023-04-18T09:41:24.430Z,19.32
2023-04-18T09:44:12.488Z,19.26
2023-04-18T09:46:47.136Z,19.42
2023-04-18T09:49:18.093Z,19.50
2023-04-18T09:51:47.780Z,19.66
2023-04-18T09:54:18.593Z,19.72
2023-04-18T09:56:50.883Z,19.62
2023-04-18T09:59:48.106Z,19.74
2023-04-18T10:02:21.407Z,19.92
2023-04-18T10:04:51.950Z,19.71
2023-04-18T10:07:21.539Z,19.46
2023-04-18T10:09:50.169Z,19.47
2023-04-18T10:12:20.180Z,19.53
2023-04-18T10:14:49.234Z,19.53
2023-04-18T10:17:17.898Z,19.63
2023-04-18T10:19:47.129Z,19.97
2023-04-18T10:22:27.667Z,20.37
2023-04-18T10:24:57.345Z,20.57
2023-04-18T10:28:03.375Z,20.45
2023-04-18T10:30:41.583Z,20.67
2023-04-18T10:33:33.869Z,21.03
2023-04-18T10:36:09.516Z,21.47
2023-04-18T10:38:53.305Z,21.64
2023-04-18T10:41:34.996Z,21.40
2023-04-18T10:44:09.317Z,21.16
2023-04-18T10:46:40.508Z,21.05
2023-04-18T10:49:26.422Z,21.07
2023-04-18T10:52:00.856Z,21.35
2023-04-18T10:54:47.449Z,21.50
2023-04-18T10:57:16.302Z,21.27
2023-04-18T10:59:49.548Z,21.00
2023-04-18T11:02:30.461Z,20.80
2023-04-18T11:05:00.916Z,20.70
2023-04-18T11:07:42.264Z,20.57
2023-04-18T11:10:11.459Z,20.40
2023-04-18T11:12:41.484Z,20.32
2023-04-18T11:15:18.042Z,20.34
2023-04-18T11:17:46.719Z,20.30
2023-04-18T11:20:15.630Z,20.21
2023-04-18T11:22:48.219Z,20.13
2023-04-18T11:25:18.323Z,20.01
2023-04-18T11:27:49.350Z,19.83
2023-04-18T11:30:18.409Z,19.58
2023-04-18T11:32:47.110Z,19.41
2023-04-18T11:35:16.566Z,19.33
2023-04-18T11:37:50.568Z,19.12
2023-04-18T11:40:19.153Z,18.93
2023-04-18T11:42:48.145Z,18.84
2023-04-18T11:45:16.625Z,18.81
2023-04-18T11:47:46.708Z,18.74
2023-04-18T11:50:15.840Z,18.69
2023-04-18T11:52:50.890Z,18.65
2023-04-18T11:55:22.031Z,18.62
2023-04-18T11:58:01.664Z,18.62
2023-04-18T12:00:33.308Z,18.72
2023-04-18T12:03:08.846Z,18.73
2023-04-18T12:05:38.985Z,18.64
2023-04-18T12:08:39.725Z,18.54
2023-04-18T12:12:07.901Z,18.47
2023-04-18T12:14:36.622Z,18.43
2023-04-18T12:17:05.089Z,18.41
2023-04-18T12:19:34.808Z,18.38
2023-04-18T12:22:05.564Z,18.34
2023-04-18T12:24:34.111Z,18.27
2023-04-18T12:27:02.701Z,18.16
2023-04-18T12:29:31.604Z,18.06
2023-04-18T12:32:00.278Z,17.97
2023-04-18T12:34:29.345Z,17.94
2023-04-18T12:36:58.037Z,17.95
2023-04-18T12:39:26.558Z,17.92
2023-04-18T12:41:55.495Z,17.86
2023-04-18T12:44:25.047Z,17.83
2023-04-18T12:46:53.836Z,17.81
2023-04-18T12:49:23.032Z,17.77
2023-04-18T12:51:51.820Z,17.69
2023-04-18T12:54:20.918Z,17.62
2023-04-18T12:56:49.305Z,17.58
2023-04-18T12:59:18.396Z,17.61
2023-04-18T13:01:47.024Z,17.64
2023-04-18T13:04:16.206Z,17.63
2023-04-18T13:06:44.844Z,17.59
2023-04-18T13:09:13.439Z,17.54
2023-04-18T13:11:42.658Z,17.46
2023-04-18T13:14:11.320Z,17.37
2023-04-18T13:16:42.423Z,17.34
2023-04-18T13:19:12.575Z,17.34
2023-04-18T13:21:41.809Z,17.40
2023-04-18T13:24:10.396Z,17.49
2023-04-18T13:26:38.976Z,17.56
2023-04-18T13:33:00.330Z,17.80
2023-04-18T13:35:29.311Z,17.80
2023-04-18T13:37:57.770Z,17.88
2023-04-18T13:40:26.997Z,17.93
2023-04-18T13:42:55.644Z,17.95
2023-04-18T13:45:24.580Z,17.97
2023-04-18T13:47:53.137Z,18.01
2023-04-18T13:50:23.333Z,18.10
2023-04-18T13:52:52.232Z,18.14
2023-04-18T13:55:21.372Z,18.22
2023-04-18T13:57:49.954Z,18.37
2023-04-18T14:00:19.681Z,18.56
2023-04-18T14:02:48.601Z,18.83
2023-04-18T14:05:17.344Z,19.20
2023-04-18T14:07:45.932Z,19.46
2023-04-18T14:10:14.672Z,19.66
2023-04-18T14:12:43.246Z,19.81
2023-04-18T14:15:12.193Z,19.92
2023-04-18T14:17:41.510Z,19.91
2023-04-18T14:20:11.923Z,19.81
2023-04-18T14:22:40.306Z,19.66
2023-04-18T14:25:09.622Z,19.50
2023-04-18T14:27:38.194Z,19.36
2023-04-18T14:30:08.855Z,19.32
2023-04-18T14:32:37.439Z,19.37
2023-04-18T14:35:07.657Z,19.30
2023-04-18T14:37:36.069Z,19.19
2023-04-18T14:40:05.716Z,19.16
2023-04-18T14:42:34.318Z,19.33
2023-04-18T14:45:03.607Z,19.41
2023-04-18T14:47:34.870Z,19.38
2023-04-18T14:50:03.582Z,19.29
2023-04-18T14:52:32.051Z,19.08
2023-04-18T14:55:00.740Z,18.86
2023-04-18T14:57:29.608Z,18.71
2023-04-18T14:59:58.014Z,18.62
2023-04-18T15:03:26.379Z,18.52
2023-04-18T15:05:55.202Z,18.39
2023-04-18T15:08:24.056Z,18.31
2023-04-18T15:10:52.607Z,18.23
2023-04-18T15:13:21.014Z,18.26
2023-04-18T15:15:53.913Z,18.28
2023-04-18T15:18:22.594Z,18.18
2023-04-18T15:20:51.835Z,17.96
2023-04-18T15:23:20.893Z,17.71
2023-04-18T15:25:49.478Z,17.44
2023-04-18T15:29:17.657Z,17.23
2023-04-18T15:31:47.007Z,16.97
2023-04-18T15:34:15.871Z,16.83
2023-04-18T15:36:44.739Z,16.70
2023-04-18T15:39:13.538Z,16.57
2023-04-18T15:41:42.433Z,16.44
2023-04-18T15:44:11.698Z,16.30
2023-04-18T15:46:40.931Z,16.20
2023-04-18T15:50:13.724Z,16.06
2023-04-18T15:53:42.037Z,15.90
2023-04-18T15:56:10.799Z,15.79
2023-04-18T15:58:39.786Z,15.65
2023-04-18T16:01:12.451Z,15.48
2023-04-18T16:03:41.197Z,15.32
2023-04-18T16:06:10.774Z,15.16
2023-04-18T16:08:39.470Z,15.01
2023-04-18T16:11:09.364Z,14.86
2023-04-18T16:13:38.462Z,14.73
2023-04-18T16:16:07.393Z,14.63
2023-04-18T16:18:36.140Z,14.52
2023-04-18T16:21:04.943Z,14.40
2023-04-18T16:23:33.512Z,14.30
2023-04-18T16:26:02.092Z,14.19
2023-04-18T16:28:30.915Z,14.09
2023-04-18T16:30:59.331Z,13.97
2023-04-18T16:33:27.992Z,13.87
2023-04-18T16:36:03.405Z,13.77
2023-04-18T16:38:52.055Z,13.70
2023-04-18T16:41:20.754Z,13.65
2023-04-18T16:43:49.331Z,13.62
2023-04-18T16:46:17.940Z,13.57
2023-04-18T16:48:46.917Z,13.48
2023-04-18T16:51:15.904Z,13.39
2023-04-18T16:53:46.104Z,13.29
2023-04-18T16:56:14.522Z,13.14
2023-04-18T16:58:42.990Z,13.01
2023-04-18T17:01:11.674Z,12.87
2023-04-18T17:03:40.454Z,12.73
2023-04-18T17:06:09.094Z,12.60
2023-04-18T17:08:37.837Z,12.47
2023-04-18T17:11:06.844Z,12.36
2023-04-18T17:13:36.342Z,12.26
2023-04-18T17:16:05.978Z,12.18
2023-04-18T17:18:34.509Z,12.09
2023-04-18T17:21:03.653Z,12.01
2023-04-18T17:23:33.155Z,11.93
2023-04-18T17:26:01.865Z,11.86
2023-04-18T17:28:30.717Z,11.79
2023-04-18T17:31:01.662Z,11.72
2023-04-18T17:33:30.856Z,11.68
2023-04-18T17:35:59.442Z,11.65
2023-04-18T17:38:27.919Z,11.61
2023-04-18T17:41:00.903Z,11.59
2023-04-18T17:43:30.083Z,11.55
2023-04-18T17:46:01.382Z,11.49
2023-04-18T17:48:30.039Z,11.46
2023-04-18T17:50:58.606Z,11.41
2023-04-18T17:53:27.111Z,11.37
2023-04-18T17:55:59.477Z,11.34
2023-04-18T17:58:28.488Z,11.31
2023-04-18T18:00:57.459Z,11.30
2023-04-18T18:03:26.487Z,11.28
2023-04-18T18:05:55.215Z,11.28
2023-04-18T18:08:24.441Z,11.27
2023-04-18T18:10:53.256Z,11.26
2023-04-18T18:13:21.924Z,11.26
2023-04-18T18:15:50.610Z,11.26
2023-04-18T18:18:30.606Z,11.25
2023-04-18T18:20:59.459Z,11.24
2023-04-18T18:23:28.042Z,11.22
2023-04-18T18:25:56.938Z,11.20
2023-04-18T18:28:25.620Z,11.19
2023-04-18T18:30:55.896Z,11.18
2023-04-18T18:33:24.434Z,11.17
2023-04-18T18:35:53.842Z,11.15
2023-04-18T18:38:22.826Z,11.13
2023-04-18T18:40:52.062Z,11.13
2023-04-18T18:43:20.406Z,11.11
2023-04-18T18:45:49.116Z,11.10
2023-04-18T18:48:20.440Z,11.09
2023-04-18T18:50:50.404Z,11.06
2023-04-18T18:53:19.330Z,11.03
2023-04-18T18:55:47.821Z,11.00
2023-04-18T18:58:16.470Z,10.97
2023-04-18T19:00:47.235Z,10.95
2023-04-18T19:03:18.568Z,10.93
2023-04-18T19:05:47.292Z,10.92
2023-04-18T19:08:15.728Z,10.91
2023-04-18T19:10:44.285Z,10.91
2023-04-18T19:17:05.702Z,10.87
2023-04-18T19:19:34.082Z,10.85
2023-04-18T19:22:02.779Z,10.82
2023-04-18T19:24:32.230Z,10.81
2023-04-18T19:27:01.265Z,10.80
2023-04-18T19:29:31.886Z,10.80
2023-04-18T19:32:01.590Z,10.79
2023-04-18T19:34:30.303Z,10.79
2023-04-18T19:37:00.013Z,10.78
2023-04-18T19:39:29.516Z,10.76
2023-04-18T19:41:58.213Z,10.74
2023-04-18T19:44:26.996Z,10.71
2023-04-18T19:46:55.582Z,10.67
2023-04-18T19:49:24.264Z,10.66
2023-04-18T19:51:53.055Z,10.64
2023-04-18T19:54:22.141Z,10.63
2023-04-18T19:56:51.362Z,10.61
2023-04-18T19:59:20.242Z,10.58
2023-04-18T20:01:49.233Z,10.56
2023-04-18T20:04:18.259Z,10.54
2023-04-18T20:06:46.809Z,10.51
2023-04-18T20:09:17.131Z,10.48
2023-04-18T20:11:46.746Z,10.45
2023-04-18T20:14:15.100Z,10.45
2023-04-18T20:16:46.121Z,10.44
2023-04-18T20:19:15.722Z,10.43
2023-04-18T20:21:44.474Z,10.41
2023-04-18T20:24:13.865Z,10.39
2023-04-18T20:26:42.374Z,10.36
2023-04-18T20:29:11.585Z,10.34
2023-04-18T20:31:42.492Z,10.31
2023-04-18T20:34:11.368Z,10.29
2023-04-18T20:36:42.689Z,10.28
2023-04-18T20:39:13.256Z,10.28
2023-04-18T20:41:48.813Z,10.26
2023-04-18T20:44:19.512Z,10.24
2023-04-18T20:46:48.329Z,10.22
2023-04-18T20:49:17.004Z,10.20
2023-04-18T20:51:46.214Z,10.17
2023-04-18T20:54:15.082Z,10.16
2023-04-18T20:56:43.893Z,10.16
2023-04-18T20:59:12.478Z,10.17
2023-04-18T21:01:41.548Z,10.17
2023-04-18T21:04:10.136Z,10.18
2023-04-18T21:06:39.115Z,10.18
2023-04-18T21:09:07.842Z,10.16
2023-04-18T21:11:36.320Z,10.15
2023-04-18T21:14:06.930Z,10.12
2023-04-18T21:16:39.431Z,10.09
2023-04-18T21:19:08.807Z,10.07
2023-04-18T21:21:37.386Z,10.06
2023-04-18T21:24:06.212Z,10.06
2023-04-18T21:26:35.012Z,10.06
2023-04-18T21:29:05.024Z,10.06
2023-04-18T21:31:35.008Z,10.06
2023-04-18T21:34:05.650Z,10.06
2023-04-18T21:36:34.147Z,10.06
2023-04-18T21:39:04.267Z,10.06
2023-04-18T21:41:32.969Z,10.05
2023-04-18T21:44:01.542Z,10.03
2023-04-18T21:46:30.547Z,10.01
2023-04-18T21:48:59.014Z,10.01
2023-04-18T21:51:27.701Z,10.00
2023-04-18T21:53:56.286Z,10.00
2023-04-18T21:56:24.887Z,10.00
2023-04-18T21:58:53.559Z,10.01
2023-04-18T22:01:22.482Z,10.01
2023-04-18T22:03:51.554Z,9.99
2023-04-18T22:06:21.091Z,9.97
2023-04-18T22:08:50.352Z,9.95
2023-04-18T22:11:19.256Z,9.92
2023-04-18T22:13:48.034Z,9.90
2023-04-18T22:16:17.840Z,9.88
2023-04-18T22:18:46.232Z,9.87
2023-04-18T22:21:14.708Z,9.87
2023-04-18T22:23:43.622Z,9.86
2023-04-18T22:26:12.084Z,9.86
2023-04-18T22:28:40.869Z,9.86
2023-04-18T22:31:09.892Z,9.85
2023-04-18T22:33:38.449Z,9.82
2023-04-18T22:36:07.341Z,9.82
2023-04-18T22:38:35.827Z,9.80
2023-04-18T22:41:04.380Z,9.78
2023-04-18T22:43:33.102Z,9.76
2023-04-18T22:46:02.929Z,9.75
2023-04-18T22:48:31.904Z,9.74
2023-04-18T22:51:02.120Z,9.73
2023-04-18T22:53:30.811Z,9.73
2023-04-18T22:55:59.401Z,9.73
2023-04-18T22:58:28.083Z,9.72
2023-04-18T23:00:56.567Z,9.71
2023-04-18T23:03:25.145Z,9.69
2023-04-18T23:05:53.954Z,9.67
2023-04-18T23:08:22.934Z,9.65
2023-04-18T23:10:51.427Z,9.64
2023-04-18T23:13:19.797Z,9.62
2023-04-18T23:15:48.435Z,9.61
2023-04-18T23:18:16.888Z,9.59
2023-04-18T23:20:46.178Z,9.57
2023-04-18T23:23:14.755Z,9.55
2023-04-18T23:25:44.293Z,9.53
2023-04-18T23:28:13.863Z,9.49
2023-04-18T23:30:42.657Z,9.45
2023-04-18T23:33:11.554Z,9.44
2023-04-18T23:35:39.826Z,9.43
2023-04-18T23:38:08.619Z,9.44
2023-04-18T23:40:37.312Z,9.43
2023-04-18T23:43:06.203Z,9.44
2023-04-18T23:45:34.520Z,9.44
2023-04-18T23:48:03.334Z,9.43
2023-04-18T23:50:32.155Z,9.39
2023-04-18T23:53:00.837Z,9.37
2023-04-18T23:55:29.321Z,9.35
2023-04-18T23:57:57.910Z,9.31
